Time;durP1;ratioP1;P1;durP2;ratioP2;P2;SDS_P1;SDS_P2;PMS_P1;PMS_P2;Temp;Humidity;BMP_temperature;BMP_pressure;BME280_temperature;BME280_humidity;BME280_pressure;Samples;Min_cycle;Max_cycle;Signal;HPM_P1;HPM_P2
2023/05/08 00:00:38;;;;;;;0.77;0.70;;;24.60;48.80;;;;;;5036325;28;20385;-68
2023/05/08 00:03:04;;;;;;;1.27;0.70;;;24.60;48.80;;;;;;5042726;28;20032;-67
2023/05/08 00:05:30;;;;;;;0.77;0.70;;;24.60;48.80;;;;;;5041718;28;20029;-68
2023/05/08 00:08:00;;;;;;;1.10;0.70;;;24.60;48.80;;;;;;5039331;28;20025;-68
2023/05/08 00:10:27;;;;;;;1.10;0.70;;;24.60;48.80;;;;;;5039656;28;20041;-67
2023/05/08 00:12:52;;;;;;;0.73;0.60;;;24.60;48.80;;;;;;5043649;28;20029;-68
2023/05/08 00:15:18;;;;;;;0.98;0.70;;;24.50;48.80;;;;;;5038110;28;20048;-67
2023/05/08 00:17:43;;;;;;;0.60;0.60;;;24.60;48.80;;;;;;5041960;28;20041;-67
2023/05/08 00:20:10;;;;;;;0.90;0.70;;;24.50;48.80;;;;;;5040622;28;20108;-67
2023/05/08 00:22:36;;;;;;;0.73;0.70;;;24.50;48.80;;;;;;5039834;28;20117;-67
2023/05/08 00:25:03;;;;;;;1.05;0.80;;;24.50;48.80;;;;;;5041604;28;20040;-68
2023/05/08 00:27:28;;;;;;;0.60;0.60;;;24.50;48.90;;;;;;5044173;28;20436;-68
2023/05/08 00:29:54;;;;;;;0.77;0.60;;;24.50;48.80;;;;;;5042648;28;20037;-68
2023/05/08 00:32:20;;;;;;;0.80;0.70;;;24.50;48.90;;;;;;5040574;28;20076;-67
2023/05/08 00:34:45;;;;;;;0.60;0.60;;;24.50;48.90;;;;;;5040029;28;20016;-68
2023/05/08 00:37:11;;;;;;;0.70;0.70;;;24.50;48.90;;;;;;5042456;28;20057;-68
2023/05/08 00:39:37;;;;;;;0.50;0.50;;;24.50;48.90;;;;;;5040294;28;20104;-67
2023/05/08 00:42:02;;;;;;;0.60;0.60;;;24.50;48.90;;;;;;5041983;28;20562;-67
2023/05/08 00:44:28;;;;;;;0.60;0.60;;;24.50;48.90;;;;;;5040046;28;20040;-67
2023/05/08 00:46:54;;;;;;;0.60;0.60;;;24.50;49.00;;;;;;5039659;28;20420;-68
2023/05/08 00:49:19;;;;;;;0.70;0.70;;;24.40;49.40;;;;;;5040598;28;20025;-68
2023/05/08 00:51:46;;;;;;;0.55;0.55;;;24.50;48.90;;;;;;5040806;28;20109;-68
2023/05/08 00:54:13;;;;;;;0.50;0.50;;;24.50;48.90;;;;;;5040476;28;20432;-68
2023/05/08 00:56:39;;;;;;;0.57;0.57;;;24.40;48.90;;;;;;5038233;28;20037;-67
2023/05/08 00:59:09;;;;;;;0.63;0.63;;;24.40;48.90;;;;;;5038804;28;20442;-67
2023/05/08 01:01:35;;;;;;;;;;;24.40;49.00;;;;;;5039955;28;20596;-67
2023/05/08 01:04:02;;;;;;;0.77;0.70;;;24.40;49.00;;;;;;5040270;28;19916;-68
2023/05/08 01:06:28;;;;;;;0.95;0.60;;;24.40;49.00;;;;;;5035920;28;20021;-68
2023/05/08 01:08:54;;;;;;;0.70;0.70;;;24.40;49.00;;;;;;5041096;28;20428;-68
2023/05/08 01:11:38;;;;;;;0.60;0.60;;;24.40;49.00;;;;;;5037805;28;20101;-68
2023/05/08 01:14:12;;;;;;;0.63;0.43;;;24.40;49.00;;;;;;5038887;28;20485;-68
2023/05/08 01:17:06;;;;;;;0.50;0.50;;;24.40;49.00;;;;;;5037137;28;20051;-68
2023/05/08 01:20:17;;;;;;;0.80;0.70;;;24.30;49.00;;;;;;5044411;28;20053;-68
2023/05/08 01:22:54;;;;;;;0.60;0.60;;;24.30;49.00;;;;;;5039648;28;20096;-67
2023/05/08 01:25:47;;;;;;;0.65;0.60;;;24.30;49.00;;;;;;5038939;28;20025;-67
2023/05/08 01:28:35;;;;;;;0.70;0.63;;;24.30;49.00;;;;;;5038362;28;20168;-68
2023/05/08 01:31:38;;;;;;;0.40;0.40;;;24.30;49.00;;;;;;5039119;28;20010;-67
2023/05/08 01:34:18;;;;;;;0.60;0.60;;;24.30;49.00;;;;;;5040429;28;20541;-68
2023/05/08 01:36:56;;;;;;;0.60;0.60;;;24.30;49.00;;;;;;5039803;28;20540;-68
2023/05/08 01:39:44;;;;;;;0.60;0.60;;;24.30;49.00;;;;;;5037580;28;20111;-67
2023/05/08 01:42:37;;;;;;;1.03;0.70;;;24.30;49.10;;;;;;5041142;28;20033;-67
2023/05/08 01:45:11;;;;;;;0.73;0.60;;;24.30;49.10;;;;;;5033231;28;21247;-68
2023/05/08 01:47:37;;;;;;;0.60;0.60;;;24.30;49.10;;;;;;5039463;28;20087;-68
2023/05/08 01:50:28;;;;;;;0.45;0.45;;;24.30;49.10;;;;;;5039804;28;20338;-68
2023/05/08 01:53:11;;;;;;;0.63;0.50;;;24.30;49.10;;;;;;5040883;28;20049;-68
2023/05/08 01:55:41;;;;;;;0.63;0.60;;;24.30;49.10;;;;;;5039077;28;20112;-68
2023/05/08 01:58:09;;;;;;;0.85;0.70;;;24.30;49.10;;;;;;5038322;28;20037;-68
2023/05/08 02:00:38;;;;;;;0.73;0.65;;;24.30;49.10;;;;;;5042280;28;20112;-68
2023/05/08 02:03:06;;;;;;;0.57;0.57;;;24.20;49.10;;;;;;5037197;28;20505;-68
2023/05/08 02:05:35;;;;;;;0.70;0.70;;;24.20;49.10;;;;;;5040256;28;20040;-68
2023/05/08 02:08:02;;;;;;;0.70;0.65;;;24.20;49.10;;;;;;5037242;28;20535;-68
2023/05/08 02:10:28;;;;;;;0.85;0.50;;;24.20;49.10;;;;;;5039005;28;20950;-68
2023/05/08 02:12:55;;;;;;;0.70;0.60;;;24.20;49.10;;;;;;5038396;28;20396;-66
2023/05/08 02:15:23;;;;;;;0.68;0.60;;;24.20;49.10;;;;;;5039382;28;20021;-68
2023/05/08 02:17:51;;;;;;;0.70;0.60;;;24.20;49.10;;;;;;5039130;28;20037;-68
2023/05/08 02:20:19;;;;;;;1.20;0.80;;;24.20;49.10;;;;;;5038543;28;20507;-67
2023/05/08 02:22:48;;;;;;;0.70;0.60;;;24.20;49.10;;;;;;5037857;28;20365;-68
2023/05/08 02:25:15;;;;;;;1.05;0.60;;;24.20;49.20;;;;;;5039750;28;20025;-68
2023/05/08 02:27:44;;;;;;;0.52;0.52;;;24.20;49.20;;;;;;5035818;28;20033;-68
2023/05/08 02:30:13;;;;;;;;;;;24.20;49.20;;;;;;5038911;28;20036;-68
2023/05/08 02:32:42;;;;;;;0.50;0.50;;;24.10;49.10;;;;;;5037509;28;19909;-68
2023/05/08 02:35:12;;;;;;;1.00;0.70;;;24.20;49.10;;;;;;5070081;28;20473;-68
2023/05/08 02:37:41;;;;;;;0.60;0.60;;;24.10;49.10;;;;;;5038679;28;20095;-68
2023/05/08 02:40:09;;;;;;;1.10;0.60;;;24.10;49.10;;;;;;5039762;28;20389;-68
2023/05/08 02:42:34;;;;;;;0.60;0.60;;;24.10;49.10;;;;;;5039267;28;20455;-68
2023/05/08 02:45:01;;;;;;;0.60;0.60;;;24.10;49.20;;;;;;5039465;28;20101;-67
2023/05/08 02:47:37;;;;;;;0.70;0.60;;;24.10;49.20;;;;;;5036418;28;20061;-68
2023/05/08 02:50:13;;;;;;;0.57;0.57;;;24.10;49.10;;;;;;5039324;28;20131;-68
2023/05/08 02:53:03;;;;;;;0.82;0.70;;;24.10;49.20;;;;;;5070934;28;20550;-68
2023/05/08 02:55:35;;;;;;;0.68;0.68;;;24.10;49.20;;;;;;5038201;28;20312;-68
2023/05/08 02:58:18;;;;;;;0.60;0.60;;;24.10;49.20;;;;;;5037737;28;20486;-68
2023/05/08 03:00:51;;;;;;;0.77;0.60;;;24.10;49.20;;;;;;5036845;28;20036;-67
2023/05/08 03:03:22;;;;;;;0.73;0.60;;;24.10;49.20;;;;;;5039616;28;20057;-68
2023/05/08 03:05:55;;;;;;;0.75;0.73;;;24.10;49.20;;;;;;5037208;28;20035;-68
2023/05/08 03:08:33;;;;;;;0.77;0.60;;;24.10;49.20;;;;;;5038283;28;20017;-67
2023/05/08 03:11:02;;;;;;;0.85;0.60;;;24.10;49.20;;;;;;5039196;28;20116;-67
2023/05/08 03:13:33;;;;;;;0.55;0.55;;;24.10;49.20;;;;;;5039417;28;20443;-65
2023/05/08 03:16:02;;;;;;;0.90;0.60;;;24.10;49.20;;;;;;5032839;28;23233;-68
2023/05/08 03:18:35;;;;;;;0.63;0.63;;;24.10;49.20;;;;;;5039957;28;20025;-68
2023/05/08 03:21:03;;;;;;;0.82;0.60;;;24.10;49.20;;;;;;5039770;28;20389;-69
2023/05/08 03:23:31;;;;;;;0.90;0.70;;;24.10;49.30;;;;;;5039933;28;20025;-68
2023/05/08 03:25:59;;;;;;;1.27;0.80;;;24.00;49.20;;;;;;5033089;28;20026;-67
2023/05/08 03:28:27;;;;;;;0.80;0.60;;;24.00;49.20;;;;;;5037125;28;20040;-68
2023/05/08 03:30:54;;;;;;;0.50;0.50;;;24.00;49.20;;;;;;5035222;28;20124;-68
2023/05/08 03:33:21;;;;;;;0.80;0.60;;;24.00;49.20;;;;;;5036744;28;20021;-68
2023/05/08 03:35:48;;;;;;;0.50;0.50;;;24.00;49.20;;;;;;5041385;28;20029;-68
2023/05/08 03:38:14;;;;;;;0.52;0.52;;;24.00;49.20;;;;;;5040775;28;20424;-68
2023/05/08 03:40:43;;;;;;;0.80;0.70;;;24.00;49.20;;;;;;5038207;28;20113;-68
2023/05/08 03:43:09;;;;;;;0.70;0.55;;;24.00;49.20;;;;;;5040786;28;20454;-68
2023/05/08 03:45:37;;;;;;;0.70;0.60;;;24.00;49.30;;;;;;5040452;28;20026;-68
2023/05/08 03:48:05;;;;;;;1.00;0.77;;;24.00;49.20;;;;;;5047405;28;20029;-68
2023/05/08 03:50:33;;;;;;;0.68;0.60;;;24.00;49.20;;;;;;5040871;28;20032;-69
2023/05/08 03:52:58;;;;;;;0.88;0.70;;;24.00;49.30;;;;;;5038683;28;20105;-67
2023/05/08 03:55:25;;;;;;;0.70;0.70;;;24.00;49.30;;;;;;5041762;28;20044;-68
2023/05/08 03:58:06;;;;;;;0.65;0.65;;;24.00;49.30;;;;;;5041155;28;20308;-68
2023/05/08 04:01:04;;;;;;;0.70;0.70;;;24.00;49.30;;;;;;5040089;28;20060;-67
2023/05/08 04:03:55;;;;;;;0.75;0.60;;;23.90;49.30;;;;;;5040426;28;20028;-67
2023/05/08 04:06:33;;;;;;;0.60;0.60;;;24.00;49.40;;;;;;5042180;28;20503;-68
2023/05/08 04:09:23;;;;;;;0.80;0.60;;;23.90;49.30;;;;;;5047734;28;20040;-68
2023/05/08 04:12:08;;;;;;;0.80;0.73;;;23.90;49.30;;;;;;5039155;28;20017;-67
2023/05/08 04:14:40;;;;;;;0.98;0.70;;;23.90;49.40;;;;;;5054645;28;20063;-68
2023/05/08 04:17:10;;;;;;;0.80;0.60;;;23.90;49.40;;;;;;5038662;28;20045;-69
2023/05/08 04:19:41;;;;;;;0.93;0.70;;;23.90;49.40;;;;;;5045081;28;20047;-68
2023/05/08 04:22:09;;;;;;;1.00;0.70;;;23.90;49.40;;;;;;5040961;28;20538;-69
2023/05/08 04:24:40;;;;;;;1.15;0.88;;;23.90;49.50;;;;;;5040035;28;20030;-68
2023/05/08 04:27:08;;;;;;;1.10;0.85;;;23.90;49.50;;;;;;5040603;28;20026;-69
2023/05/08 04:29:33;;;;;;;0.88;0.80;;;23.90;49.50;;;;;;5043204;28;20072;-68
2023/05/08 04:32:00;;;;;;;1.05;0.80;;;23.90;49.50;;;;;;5040337;28;20049;-69
2023/05/08 04:34:26;;;;;;;0.77;0.77;;;23.90;49.50;;;;;;5043676;28;20021;-65
2023/05/08 04:36:52;;;;;;;1.08;0.80;;;23.90;49.50;;;;;;5037242;28;20500;-66
2023/05/08 04:39:18;;;;;;;1.10;0.90;;;23.90;49.50;;;;;;5036248;28;20033;-66
2023/05/08 04:41:44;;;;;;;1.10;0.80;;;23.90;49.50;;;;;;5036953;28;20025;-66
2023/05/08 04:44:10;;;;;;;1.45;0.95;;;23.90;49.50;;;;;;5039090;28;20033;-66
2023/05/08 04:46:36;;;;;;;1.55;0.90;;;23.90;49.50;;;;;;5035448;28;20025;-66
2023/05/08 04:49:01;;;;;;;1.20;0.90;;;23.90;49.60;;;;;;5038120;28;20075;-66
2023/05/08 04:51:28;;;;;;;1.25;0.90;;;23.90;49.60;;;;;;5038254;28;20119;-66
2023/05/08 04:53:53;;;;;;;1.25;0.90;;;23.90;49.60;;;;;;5040396;28;20129;-66
2023/05/08 04:56:19;;;;;;;1.00;0.90;;;23.90;49.60;;;;;;5041262;28;20036;-65
2023/05/08 04:58:45;;;;;;;1.50;1.02;;;23.90;49.60;;;;;;5037285;28;20032;-65
2023/05/08 05:01:10;;;;;;;1.17;1.00;;;23.90;49.60;;;;;;5040042;28;20044;-66
2023/05/08 05:03:36;;;;;;;1.30;1.02;;;23.80;49.60;;;;;;5043313;28;20040;-66
2023/05/08 05:06:01;;;;;;;1.25;0.90;;;23.80;50.10;;;;;;5041971;28;20475;-67
2023/05/08 05:08:27;;;;;;;1.08;0.93;;;23.80;49.60;;;;;;5041940;28;20026;-67
2023/05/08 05:10:53;;;;;;;1.27;1.00;;;23.80;49.60;;;;;;5038667;28;20021;-66
2023/05/08 05:13:19;;;;;;;1.38;1.00;;;23.80;49.60;;;;;;5036696;28;20025;-66
2023/05/08 05:15:44;;;;;;;1.67;1.10;;;23.80;49.60;;;;;;5040295;28;20029;-66
2023/05/08 05:18:10;;;;;;;1.50;1.00;;;23.80;49.60;;;;;;5039421;28;20394;-67
2023/05/08 05:20:36;;;;;;;1.30;0.93;;;23.80;50.10;;;;;;5041723;28;20032;-66
2023/05/08 05:23:02;;;;;;;1.00;0.90;;;23.80;49.60;;;;;;5039477;28;20116;-66
2023/05/08 05:25:28;;;;;;;2.08;0.88;;;23.80;49.60;;;;;;5038906;28;20021;-65
2023/05/08 05:27:53;;;;;;;1.08;0.90;;;23.90;49.70;;;;;;5037996;28;20033;-68
2023/05/08 05:30:19;;;;;;;1.10;1.00;;;23.80;49.80;;;;;;5039424;28;20488;-67
2023/05/08 05:32:45;;;;;;;1.38;1.10;;;23.80;49.80;;;;;;5038339;28;20029;-67
2023/05/08 05:35:10;;;;;;;1.67;0.95;;;23.80;49.70;;;;;;5039874;28;20101;-68
2023/05/08 05:37:36;;;;;;;1.60;1.00;;;23.80;49.70;;;;;;5038801;28;20510;-67
2023/05/08 05:40:02;;;;;;;1.67;1.20;;;23.90;49.70;;;;;;5038343;28;20021;-67
2023/05/08 05:42:28;;;;;;;1.20;1.00;;;23.80;49.60;;;;;;5036535;28;20029;-67
2023/05/08 05:44:55;;;;;;;4.03;1.30;;;23.90;49.70;;;;;;5038994;28;20051;-67
2023/05/08 05:47:21;;;;;;;4.93;1.00;;;23.90;49.70;;;;;;5038996;28;20104;-67
2023/05/08 05:49:46;;;;;;;2.83;1.30;;;23.90;49.80;;;;;;5036765;28;20108;-66
2023/05/08 05:52:13;;;;;;;1.88;1.00;;;23.90;49.80;;;;;;5037223;28;20109;-67
2023/05/08 05:54:40;;;;;;;2.00;1.10;;;23.90;49.80;;;;;;5039826;28;20060;-67
2023/05/08 05:57:06;;;;;;;1.33;0.90;;;24.00;50.30;;;;;;5038194;28;20030;-67
2023/05/08 05:59:32;;;;;;;1.77;1.00;;;24.00;49.80;;;;;;5036404;28;20059;-66
2023/05/08 06:01:57;;;;;;;2.05;1.20;;;24.00;49.80;;;;;;5036767;28;20033;-66
2023/05/08 06:04:23;;;;;;;2.78;1.20;;;24.00;49.70;;;;;;5039361;28;20098;-66
2023/05/08 06:06:49;;;;;;;1.40;1.00;;;24.00;49.70;;;;;;5038626;28;20021;-65
2023/05/08 06:09:14;;;;;;;1.80;1.20;;;24.00;49.70;;;;;;5039371;28;20024;-65
2023/05/08 06:11:40;;;;;;;1.83;1.15;;;24.00;49.50;;;;;;5036979;28;20026;-65
2023/05/08 06:14:06;;;;;;;1.65;1.20;;;24.00;49.50;;;;;;5039523;28;20078;-65
2023/05/08 06:16:34;;;;;;;1.15;0.98;;;24.10;49.50;;;;;;5037351;28;20385;-65
2023/05/08 06:18:59;;;;;;;1.75;1.00;;;24.10;49.40;;;;;;5038382;28;20516;-66
2023/05/08 06:21:27;;;;;;;1.50;1.20;;;24.10;49.40;;;;;;5035829;28;20025;-66
2023/05/08 06:23:53;;;;;;;3.85;1.20;;;24.10;49.40;;;;;;5038171;28;20035;-66
2023/05/08 06:26:18;;;;;;;1.45;1.05;;;24.10;49.40;;;;;;5037676;28;20116;-65
2023/05/08 06:28:44;;;;;;;1.50;1.10;;;24.10;49.30;;;;;;5038292;28;20104;-66
2023/05/08 06:31:10;;;;;;;1.95;1.15;;;24.10;49.30;;;;;;5043467;28;20074;-66
2023/05/08 06:33:35;;;;;;;2.55;1.17;;;24.10;49.30;;;;;;5038003;28;20037;-65
2023/05/08 06:36:03;;;;;;;2.63;1.30;;;24.20;49.30;;;;;;5039673;28;20074;-65
2023/05/08 06:38:29;;;;;;;1.67;1.10;;;24.20;49.30;;;;;;5038932;28;20033;-65
2023/05/08 06:40:55;;;;;;;1.73;1.20;;;24.20;49.20;;;;;;5037991;28;20078;-65
2023/05/08 06:43:21;;;;;;;1.88;1.20;;;24.20;49.20;;;;;;5037076;28;20029;-66
2023/05/08 06:45:46;;;;;;;1.48;1.05;;;24.20;49.20;;;;;;5039218;28;20074;-67
2023/05/08 06:48:12;;;;;;;1.52;1.10;;;24.20;49.10;;;;;;5037803;28;20048;-66
2023/05/08 06:50:39;;;;;;;1.55;1.10;;;24.20;49.10;;;;;;5038427;28;20504;-67
2023/05/08 06:53:05;;;;;;;1.60;1.05;;;24.20;49.00;;;;;;5036688;28;20033;-67
2023/05/08 06:55:32;;;;;;;2.80;1.40;;;24.30;49.00;;;;;;5039189;28;20032;-66
2023/05/08 06:57:57;;;;;;;1.92;1.20;;;24.30;49.00;;;;;;5039865;28;20071;-66
2023/05/08 07:00:23;;;;;;;1.55;1.25;;;24.30;49.00;;;;;;5037980;28;20131;-67
2023/05/08 07:02:48;;;;;;;1.70;1.15;;;24.30;49.10;;;;;;5036435;28;20033;-66
2023/05/08 07:05:14;;;;;;;2.13;1.42;;;24.30;49.00;;;;;;5040077;28;20684;-66
2023/05/08 07:07:41;;;;;;;1.88;1.20;;;24.30;48.90;;;;;;5037397;28;20017;-66
2023/05/08 07:10:07;;;;;;;1.75;1.10;;;24.30;48.90;;;;;;5037521;28;20617;-66
2023/05/08 07:12:33;;;;;;;1.67;1.20;;;24.30;48.90;;;;;;5037386;28;20025;-67
2023/05/08 07:14:58;;;;;;;2.65;1.15;;;24.30;48.90;;;;;;5036359;28;20035;-66
2023/05/08 07:17:24;;;;;;;1.92;1.27;;;24.30;48.90;;;;;;5039725;28;20032;-66
2023/05/08 07:19:50;;;;;;;1.73;1.15;;;24.30;48.80;;;;;;5036222;28;20040;-65
2023/05/08 07:22:16;;;;;;;2.10;1.27;;;24.40;48.90;;;;;;5038584;28;20029;-66
2023/05/08 07:24:41;;;;;;;2.00;1.25;;;24.40;48.90;;;;;;5039123;28;20923;-65
2023/05/08 07:27:07;;;;;;;1.65;1.20;;;24.30;48.80;;;;;;5038021;28;20025;-65
2023/05/08 07:29:34;;;;;;;1.38;1.10;;;24.40;48.90;;;;;;5038368;28;20431;-68
2023/05/08 07:32:00;;;;;;;1.50;1.17;;;24.40;48.90;;;;;;5035202;28;20075;-68
2023/05/08 07:34:26;;;;;;;1.98;1.23;;;24.40;48.80;;;;;;5043024;28;20030;-68
2023/05/08 07:36:52;;;;;;;2.00;1.20;;;24.40;48.80;;;;;;5038571;28;20436;-68
2023/05/08 07:39:18;;;;;;;1.40;1.15;;;24.40;48.80;;;;;;5037365;28;20033;-67
2023/05/08 07:41:44;;;;;;;3.95;1.20;;;24.40;48.80;;;;;;5038941;28;20033;-68
2023/05/08 07:44:10;;;;;;;2.78;1.20;;;24.40;48.70;;;;;;5037932;28;20170;-68
2023/05/08 07:46:36;;;;;;;1.40;1.20;;;24.40;48.70;;;;;;5036645;28;20025;-68
2023/05/08 07:49:01;;;;;;;1.95;1.27;;;24.40;48.70;;;;;;5037736;28;20075;-68
2023/05/08 07:51:27;;;;;;;2.35;1.20;;;24.40;48.70;;;;;;5038090;28;20092;-68
2023/05/08 07:53:53;;;;;;;1.38;1.10;;;24.40;48.60;;;;;;5039091;28;20029;-65
2023/05/08 07:56:21;;;;;;;2.25;1.40;;;24.40;48.70;;;;;;5038183;28;20326;-65
2023/05/08 07:58:47;;;;;;;2.90;1.30;;;24.40;48.70;;;;;;5036138;28;20076;-65
2023/05/08 08:01:12;;;;;;;2.67;1.50;;;24.40;48.70;;;;;;5034312;28;20085;-65
2023/05/08 08:03:38;;;;;;;3.13;1.58;;;24.50;48.70;;;;;;5036531;28;20112;-65
2023/05/08 08:06:04;;;;;;;2.25;1.50;;;24.50;48.70;;;;;;5039093;28;20096;-65
2023/05/08 08:08:29;;;;;;;2.97;1.48;;;24.50;48.70;;;;;;5044595;28;20131;-65
2023/05/08 08:10:55;;;;;;;1.50;1.27;;;24.50;48.70;;;;;;5036495;28;20414;-65
2023/05/08 08:13:21;;;;;;;2.63;1.70;;;24.50;48.90;;;;;;5036338;28;20133;-65
2023/05/08 08:15:46;;;;;;;2.20;1.40;;;24.50;49.00;;;;;;5036703;28;20196;-65
2023/05/08 08:18:12;;;;;;;2.20;1.60;;;24.50;48.90;;;;;;5034934;28;20120;-65
2023/05/08 08:20:38;;;;;;;2.20;1.48;;;24.50;48.90;;;;;;5035720;28;20125;-65
2023/05/08 08:23:04;;;;;;;3.08;1.73;;;24.50;48.80;;;;;;5039720;28;20057;-65
2023/05/08 08:25:30;;;;;;;2.17;1.48;;;24.50;48.80;;;;;;5041454;28;20022;-65
2023/05/08 08:27:57;;;;;;;2.22;1.50;;;24.60;48.80;;;;;;5042655;28;20066;-65
2023/05/08 08:30:22;;;;;;;2.05;1.50;;;24.60;48.80;;;;;;5043332;28;20087;-67
2023/05/08 08:32:48;;;;;;;1.92;1.40;;;24.50;48.80;;;;;;5041998;28;20472;-66
2023/05/08 08:35:14;;;;;;;3.47;1.70;;;24.60;48.80;;;;;;5042076;28;20129;-67
2023/05/08 08:37:39;;;;;;;2.70;1.48;;;24.50;48.90;;;;;;5056126;28;20021;-66
2023/05/08 08:40:06;;;;;;;2.15;1.60;;;24.50;48.90;;;;;;5040360;28;20174;-65
2023/05/08 08:42:31;;;;;;;2.40;1.60;;;24.60;48.90;;;;;;5041989;28;20032;-65
2023/05/08 08:44:57;;;;;;;2.20;1.48;;;24.60;48.80;;;;;;5039157;28;20437;-65
2023/05/08 08:47:28;;;;;;;2.33;1.50;;;24.60;48.80;;;;;;5042320;28;20107;-66
2023/05/08 08:49:55;;;;;;;2.05;1.52;;;24.60;48.90;;;;;;5039800;28;20044;-65
2023/05/08 08:52:56;;;;;;;1.80;1.30;;;24.50;48.90;;;;;;5038079;28;20116;-66
2023/05/08 08:55:24;;;;;;;1.95;1.40;;;24.60;49.00;;;;;;5038080;28;20171;-65
2023/05/08 08:57:58;;;;;;;1.63;1.20;;;24.60;49.00;;;;;;5038827;28;20374;-64
2023/05/08 09:00:28;;;;;;;1.83;1.40;;;24.60;49.00;;;;;;5040697;28;20132;-65
2023/05/08 09:02:54;;;;;;;2.17;1.30;;;24.50;49.00;;;;;;5042361;28;20030;-64
2023/05/08 09:05:21;;;;;;;2.47;1.40;;;24.50;48.90;;;;;;5040576;28;20504;-65
2023/05/08 09:07:47;;;;;;;2.30;1.60;;;24.60;48.90;;;;;;5037202;28;20026;-65
2023/05/08 09:10:14;;;;;;;2.38;1.50;;;24.60;48.90;;;;;;5040970;28;20029;-65
2023/05/08 09:12:40;;;;;;;2.33;1.70;;;24.60;48.80;;;;;;5040652;28;20037;-65
2023/05/08 09:15:06;;;;;;;2.92;1.55;;;24.60;48.80;;;;;;5039926;28;20549;-65
2023/05/08 09:17:32;;;;;;;2.45;1.77;;;24.60;48.80;;;;;;5039331;28;20112;-65
2023/05/08 09:19:58;;;;;;;3.05;1.52;;;24.60;48.80;;;;;;5040541;28;20025;-65
2023/05/08 09:22:25;;;;;;;2.42;1.70;;;24.60;48.90;;;;;;5040491;28;20034;-64
2023/05/08 09:24:53;;;;;;;2.38;1.52;;;24.60;48.80;;;;;;5037336;28;20021;-64
2023/05/08 09:27:24;;;;;;;2.27;1.77;;;24.60;48.80;;;;;;5039230;28;20025;-64
2023/05/08 09:30:05;;;;;;;1.95;1.42;;;24.60;48.80;;;;;;5038306;28;20276;-64
2023/05/08 09:32:32;;;;;;;2.15;1.58;;;24.60;48.80;;;;;;5042503;28;20028;-64
2023/05/08 09:34:58;;;;;;;2.03;1.33;;;24.70;48.80;;;;;;5040615;28;20349;-64
2023/05/08 09:37:25;;;;;;;2.30;1.40;;;24.70;49.00;;;;;;5039988;28;20033;-63
2023/05/08 09:39:51;;;;;;;1.60;1.30;;;24.60;48.90;;;;;;5038241;28;21894;-64
2023/05/08 09:42:16;;;;;;;1.90;1.40;;;24.70;49.00;;;;;;5039659;28;20075;-64
2023/05/08 09:44:48;;;;;;;2.28;1.50;;;24.60;48.80;;;;;;5039374;28;20025;-64
2023/05/08 09:47:24;;;;;;;2.10;1.50;;;24.60;48.90;;;;;;5052498;28;20056;-65
2023/05/08 09:50:08;;;;;;;1.90;1.40;;;24.70;48.90;;;;;;5037860;28;20544;-64
2023/05/08 09:52:35;;;;;;;1.85;1.30;;;24.70;49.00;;;;;;5038274;28;20030;-64
2023/05/08 09:55:09;;;;;;;1.52;1.25;;;24.60;48.90;;;;;;5070265;28;20039;-65
2023/05/08 09:57:38;;;;;;;1.65;1.20;;;24.60;48.90;;;;;;5038978;28;20037;-64
2023/05/08 10:00:09;;;;;;;2.10;1.30;;;24.60;49.00;;;;;;5038395;28;20755;-64
2023/05/08 10:02:36;;;;;;;1.70;1.25;;;24.60;48.90;;;;;;5036064;28;20057;-64
2023/05/08 10:05:04;;;;;;;1.60;1.20;;;24.60;49.00;;;;;;5036568;28;20186;-65
2023/05/08 10:07:33;;;;;;;1.60;1.30;;;24.60;48.90;;;;;;5040770;28;20068;-64
2023/05/08 10:10:00;;;;;;;;;;;24.60;49.00;;;;;;5042436;28;20049;-65
2023/05/08 10:12:27;;;;;;;2.42;1.45;;;24.60;48.90;;;;;;5041489;28;19909;-66
2023/05/08 10:14:52;;;;;;;1.77;1.30;;;24.70;48.90;;;;;;5036161;28;20029;-65
2023/05/08 10:17:25;;;;;;;1.50;1.20;;;24.60;48.80;;;;;;5037446;28;20091;-63
2023/05/08 10:19:58;;;;;;;1.48;1.15;;;24.70;48.90;;;;;;5039589;28;20511;-65
2023/05/08 10:22:25;;;;;;;1.30;1.13;;;24.60;48.80;;;;;;5069960;28;20540;-65
2023/05/08 10:24:57;;;;;;;1.65;1.17;;;24.60;48.80;;;;;;5038797;28;20466;-64
2023/05/08 10:27:33;;;;;;;1.70;1.30;;;24.70;49.00;;;;;;5038102;28;20080;-64
2023/05/08 10:30:03;;;;;;;1.33;1.20;;;24.70;48.80;;;;;;5038660;28;20459;-62
2023/05/08 10:32:34;;;;;;;1.70;1.20;;;24.60;48.70;;;;;;5038020;28;20116;-64
2023/05/08 10:35:02;;;;;;;2.00;1.30;;;24.70;48.70;;;;;;5037237;28;20649;-64
2023/05/08 10:37:29;;;;;;;2.15;1.45;;;24.70;48.70;;;;;;5039024;28;20104;-64
2023/05/08 10:39:56;;;;;;;1.98;1.30;;;24.70;48.70;;;;;;5038546;28;20477;-65
2023/05/08 10:42:22;;;;;;;1.75;1.40;;;24.70;48.70;;;;;;5039686;28;20495;-64
2023/05/08 10:44:48;;;;;;;2.20;1.45;;;24.70;48.70;;;;;;5038665;28;20029;-64
2023/05/08 10:47:26;;;;;;;2.95;1.50;;;24.70;48.70;;;;;;5037421;28;20099;-63
2023/05/08 10:50:33;;;;;;;2.13;1.50;;;24.70;48.70;;;;;;5036755;28;20048;-64
2023/05/08 10:53:14;;;;;;;2.38;1.70;;;24.70;48.60;;;;;;5016289;28;20493;-64
2023/05/08 10:55:43;;;;;;;2.20;1.40;;;24.70;48.60;;;;;;5036532;28;20136;-64
2023/05/08 10:58:29;;;;;;;3.13;1.60;;;24.70;48.50;;;;;;5039175;28;20056;-64
2023/05/08 11:01:05;;;;;;;2.50;1.50;;;24.70;48.70;;;;;;5036956;28;20032;-64
2023/05/08 11:03:37;;;;;;;2.35;1.40;;;24.70;48.60;;;;;;5037898;28;20461;-63
2023/05/08 11:06:03;;;;;;;1.60;1.20;;;24.70;48.60;;;;;;5035568;28;20137;-64
2023/05/08 11:08:30;;;;;;;2.70;1.70;;;24.70;48.60;;;;;;5039424;28;20136;-64
2023/05/08 11:13:36;;;;;;;2.13;1.40;;;24.70;48.70;;;;;;5037819;28;20461;-64
2023/05/08 11:16:02;;;;;;;3.17;1.50;;;24.70;48.60;;;;;;5036061;28;20041;-64
2023/05/08 11:18:28;;;;;;;2.50;1.40;;;24.70;48.70;;;;;;5036176;28;20041;-64
2023/05/08 11:20:59;;;;;;;2.05;1.40;;;24.70;48.70;;;;;;5036265;28;20025;-64
2023/05/08 11:23:27;;;;;;;2.10;1.50;;;24.70;48.70;;;;;;5054164;28;20100;-65
2023/05/08 11:26:01;;;;;;;2.28;1.58;;;24.70;48.70;;;;;;5035757;28;20029;-64
2023/05/08 11:28:30;;;;;;;2.30;1.60;;;24.70;48.70;;;;;;5039610;28;20029;-64
2023/05/08 11:30:56;;;;;;;2.67;1.65;;;24.70;48.70;;;;;;5038071;28;20835;-65
2023/05/08 11:33:22;;;;;;;2.13;1.70;;;24.70;48.60;;;;;;5037771;28;20037;-65
2023/05/08 11:35:52;;;;;;;2.63;1.80;;;24.80;48.70;;;;;;5036446;28;20029;-65
2023/05/08 11:38:28;;;;;;;2.92;1.60;;;24.70;48.60;;;;;;5036339;28;20433;-65
2023/05/08 11:41:18;;;;;;;2.30;1.60;;;24.70;48.60;;;;;;5035974;28;20037;-65
2023/05/08 11:44:08;;;;;;;1.92;1.40;;;24.80;48.60;;;;;;5038479;28;20137;-66
2023/05/08 11:46:36;;;;;;;;;;;24.80;48.60;;;;;;5040365;28;20051;-65
2023/05/08 11:49:02;;;;;;;2.53;1.70;;;24.70;48.60;;;;;;5036972;28;19934;-67
2023/05/08 11:51:32;;;;;;;2.28;1.60;;;24.80;48.60;;;;;;5034462;28;20307;-67
2023/05/08 11:54:01;;;;;;;2.17;1.40;;;24.80;48.50;;;;;;5040268;28;20437;-68
2023/05/08 11:56:26;;;;;;;2.55;1.60;;;24.70;48.50;;;;;;5037031;28;20033;-66
2023/05/08 11:59:05;;;;;;;5.43;1.77;;;24.80;48.50;;;;;;5042111;28;20102;-67
2023/05/08 12:01:34;;;;;;;2.75;1.65;;;24.80;48.60;;;;;;5038648;28;20053;-66
2023/05/08 12:04:00;;;;;;;1.70;1.38;;;24.70;48.50;;;;;;5042168;28;20028;-68
2023/05/08 12:06:26;;;;;;;2.60;1.50;;;24.70;48.60;;;;;;5038681;28;20047;-66
2023/05/08 12:08:52;;;;;;;2.20;1.40;;;24.70;48.60;;;;;;5041906;28;20497;-66
2023/05/08 12:11:22;;;;;;;1.45;1.17;;;24.70;48.60;;;;;;5040853;28;20104;-65
2023/05/08 12:13:50;;;;;;;1.40;1.15;;;24.70;48.70;;;;;;5039149;28;20029;-66
2023/05/08 12:16:16;;;;;;;1.92;1.38;;;24.70;48.70;;;;;;5037945;28;20044;-66
2023/05/08 12:18:42;;;;;;;3.05;1.50;;;24.70;48.70;;;;;;5042400;28;20483;-66
2023/05/08 12:21:10;;;;;;;1.70;1.30;;;24.70;48.80;;;;;;5039945;28;20393;-66
2023/05/08 12:23:37;;;;;;;2.75;1.30;;;24.70;48.70;;;;;;5040567;28;20057;-66
2023/05/08 12:26:03;;;;;;;2.33;1.40;;;24.80;48.70;;;;;;5037884;28;20079;-67
2023/05/08 12:28:31;;;;;;;2.40;1.48;;;24.80;48.70;;;;;;5037390;28;20568;-67
2023/05/08 12:30:57;;;;;;;2.00;1.30;;;24.70;48.70;;;;;;5037853;28;20370;-66
2023/05/08 12:33:23;;;;;;;2.15;1.45;;;24.70;48.70;;;;;;5039580;28;20064;-66
2023/05/08 12:35:49;;;;;;;1.92;1.33;;;24.70;48.70;;;;;;5039738;28;20037;-66
2023/05/08 12:38:15;;;;;;;1.35;1.00;;;24.70;48.70;;;;;;5040384;28;20083;-65
2023/05/08 12:40:47;;;;;;;1.90;1.38;;;24.70;48.70;;;;;;5043692;28;20052;-66
2023/05/08 12:43:13;;;;;;;1.73;1.30;;;24.70;48.70;;;;;;5039767;28;20485;-66
2023/05/08 12:45:41;;;;;;;3.17;1.27;;;24.70;48.70;;;;;;5039813;28;20017;-65
2023/05/08 12:48:08;;;;;;;2.17;1.40;;;24.70;48.80;;;;;;5041751;28;20096;-65
2023/05/08 12:50:39;;;;;;;2.05;1.55;;;24.80;48.80;;;;;;5037925;28;20068;-65
2023/05/08 12:53:06;;;;;;;1.92;1.40;;;24.80;48.80;;;;;;5037853;28;20021;-66
2023/05/08 12:55:34;;;;;;;2.08;1.40;;;24.80;49.30;;;;;;5038577;28;20017;-65
2023/05/08 12:58:08;;;;;;;1.98;1.38;;;24.80;48.70;;;;;;5040224;28;20516;-66
2023/05/08 13:00:45;;;;;;;1.95;1.40;;;24.80;48.80;;;;;;5037667;28;20049;-66